Ribeirao Preto, Brazil
Current Conditions -  °F | °C
As of 1:00 PM on Friday 19 Dec 2014 (Local Time) from SBRP Reporting Station
Broken Clouds Broken Clouds  
Wind Chill: 88°   Ceiling: 3500
Heat Index: 89°   Visibility: 6mi
Dew Point: 64°   Wind: 7mph
Humidity: 46%   Direction: 340°NNW
Pressure: 29.85"   Gusts: NA
Location:  21.17°S, 47.8°W
Report Text: SBRP 191500Z 34006KT 9999 BKN035 31/18 Q1011
Loading
Personal Weather Stations






























Interactive Weather Map New forecast layout! Learn more

10-Day Weather Forecast

Advertisements
Track Severe Weather on mobile